Time;durP1;ratioP1;P1;durP2;ratioP2;P2;SDS_P1;SDS_P2;PMS_P1;PMS_P2;Temp;Humidity;BMP_temperature;BMP_pressure;BME280_temperature;BME280_humidity;BME280_pressure;Samples;Min_cycle;Max_cycle;Signal;HPM_P1;HPM_P2
2022/05/15 00:01:58;;;;;;;7.10;2.17;;;22.20;43.80;21.20;101746.00;;;;5037265;28;20493;-73
2022/05/15 00:04:44;;;;;;;5.93;1.73;;;22.20;43.90;21.20;101745.00;;;;5042309;28;20041;-72
2022/05/15 00:07:30;;;;;;;4.85;1.52;;;22.20;43.90;21.20;101744.00;;;;5030071;28;20399;-72
2022/05/15 00:10:16;;;;;;;9.07;2.05;;;22.20;43.90;21.20;101750.00;;;;5039925;28;20044;-73
2022/05/15 00:13:02;;;;;;;7.18;2.33;;;22.20;44.00;21.20;101750.00;;;;5038130;28;20061;-73
2022/05/15 00:15:51;;;;;;;7.75;1.98;;;22.20;44.00;21.20;101755.00;;;;5017429;28;20046;-73
2022/05/15 00:18:40;;;;;;;7.05;1.80;;;22.20;44.00;21.20;101751.00;;;;5031065;28;20047;-72
2022/05/15 00:21:26;;;;;;;5.78;1.98;;;22.20;44.10;21.20;101745.00;;;;5039909;28;20112;-73
2022/05/15 00:24:12;;;;;;;5.53;1.80;;;22.30;44.20;21.20;101744.00;;;;5028799;28;20078;-72
2022/05/15 00:26:58;;;;;;;7.25;2.30;;;22.20;44.10;21.20;101741.00;;;;5041496;28;20040;-73
2022/05/15 00:29:44;;;;;;;5.75;2.10;;;22.20;44.10;21.20;101738.00;;;;5035391;28;20037;-72
2022/05/15 00:32:32;;;;;;;8.32;2.10;;;22.20;44.20;21.20;101738.00;;;;5042294;28;20044;-73
2022/05/15 00:35:18;;;;;;;6.65;1.90;;;22.20;44.10;21.20;101740.00;;;;5024683;28;20587;-73
2022/05/15 00:38:05;;;;;;;5.35;2.42;;;22.20;44.80;21.20;101741.00;;;;5026785;28;20261;-72
2022/05/15 00:40:51;;;;;;;7.38;2.03;;;22.20;44.10;21.20;101734.00;;;;5038243;28;20273;-73
2022/05/15 00:43:45;;;;;;;6.68;1.95;;;22.20;44.20;21.20;101732.00;;;;5039167;28;20095;-72
2022/05/15 00:46:33;;;;;;;7.47;1.65;;;22.20;44.20;21.20;101727.00;;;;5039836;28;20387;-72
2022/05/15 00:49:20;;;;;;;4.85;1.55;;;22.10;44.20;21.20;101734.00;;;;5018950;28;20046;-73
2022/05/15 00:52:10;;;;;;;5.80;1.73;;;22.10;44.20;21.20;101728.00;;;;5027449;28;20507;-73
2022/05/15 00:55:00;;;;;;;6.50;2.25;;;22.10;44.30;21.20;101733.00;;;;5028631;28;20033;-72
2022/05/15 00:57:56;;;;;;;5.57;1.83;;;22.10;44.30;21.20;101729.00;;;;5026311;28;20557;-72
2022/05/15 01:00:46;;;;;;;6.00;1.58;;;22.10;45.00;21.20;101735.00;;;;5028978;28;20083;-72
2022/05/15 01:03:32;;;;;;;7.32;2.20;;;22.10;44.30;21.10;101723.00;;;;5022177;28;20045;-72
2022/05/15 01:06:18;;;;;;;7.78;2.33;;;22.10;44.30;21.10;101733.00;;;;5029554;28;20041;-72
2022/05/15 01:09:05;;;;;;;7.90;2.40;;;22.10;44.30;21.10;101730.00;;;;5031600;28;20640;-72
2022/05/15 01:11:51;;;;;;;4.25;1.63;;;22.10;44.40;21.10;101732.00;;;;5018480;28;20041;-72
2022/05/15 01:14:43;;;;;;;6.32;1.58;;;22.10;44.40;21.10;101726.00;;;;5016463;28;20460;-72
2022/05/15 01:17:29;;;;;;;7.95;1.75;;;22.10;44.50;21.10;101723.00;;;;5029400;28;20101;-72
2022/05/15 01:20:18;;;;;;;5.72;1.48;;;22.00;44.40;21.10;101723.00;;;;5045793;28;20037;-72
2022/05/15 01:23:04;;;;;;;6.45;1.80;;;22.00;45.20;21.10;101723.00;;;;5029955;28;20056;-72
2022/05/15 01:25:50;;;;;;;4.60;1.55;;;22.00;44.50;21.10;101720.00;;;;5037165;28;20041;-72
2022/05/15 01:28:36;;;;;;;3.97;1.40;;;22.00;44.60;21.10;101729.00;;;;5044382;28;20082;-72
2022/05/15 01:31:23;;;;;;;4.53;1.63;;;22.00;44.60;21.10;101729.00;;;;5038584;28;21788;-72
2022/05/15 01:34:12;;;;;;;4.40;1.60;;;21.90;44.60;21.10;101724.00;;;;5041052;28;20040;-72
2022/05/15 01:36:59;;;;;;;11.23;2.15;;;21.90;44.70;21.00;101720.00;;;;5041858;28;20474;-72
2022/05/15 01:39:45;;;;;;;5.50;2.00;;;22.00;44.70;21.00;101727.00;;;;5036462;28;20053;-72
2022/05/15 01:42:31;;;;;;;5.78;1.67;;;21.90;44.70;21.00;101729.00;;;;5049188;28;20032;-72
2022/05/15 01:45:17;;;;;;;7.20;1.70;;;21.90;44.70;21.00;101732.00;;;;5011686;28;20051;-72
2022/05/15 01:48:04;;;;;;;4.68;1.77;;;21.90;44.70;21.00;101722.00;;;;5040609;28;20052;-72
2022/05/15 01:50:50;;;;;;;4.68;1.58;;;21.90;44.80;21.00;101723.00;;;;5042240;28;20055;-72
2022/05/15 01:53:36;;;;;;;5.63;1.70;;;21.80;44.70;21.00;101729.00;;;;5038735;28;20364;-72
2022/05/15 01:56:22;;;;;;;5.28;1.92;;;21.90;44.80;21.00;101729.00;;;;5039351;28;20525;-72
2022/05/15 01:59:08;;;;;;;4.57;1.60;;;21.80;44.80;21.00;101726.00;;;;5033936;28;20045;-72
2022/05/15 02:01:54;;;;;;;3.85;1.65;;;21.80;44.80;21.00;101726.00;;;;5042308;28;20676;-72
2022/05/15 02:04:40;;;;;;;6.10;1.92;;;21.80;44.80;20.90;101726.00;;;;5037960;28;20048;-72
2022/05/15 02:07:26;;;;;;;6.47;1.92;;;21.80;44.90;20.90;101724.00;;;;5025371;28;20056;-73
2022/05/15 02:10:13;;;;;;;4.47;1.55;;;21.80;44.90;20.90;101725.00;;;;5041004;28;20096;-72
2022/05/15 02:12:59;;;;;;;6.38;2.13;;;21.80;44.90;20.90;101731.00;;;;5038012;28;20045;-73
2022/05/15 02:16:05;;;;;;;5.18;1.63;;;21.70;44.90;20.90;101730.00;;;;5041174;28;20127;-73
2022/05/15 02:18:51;;;;;;;4.80;1.50;;;21.80;45.00;20.90;101731.00;;;;5034653;28;20039;-72
2022/05/15 02:21:37;;;;;;;6.07;1.75;;;21.70;44.90;20.90;101731.00;;;;5035931;28;20307;-73
2022/05/15 02:24:23;;;;;;;3.92;1.50;;;21.70;45.00;20.90;101727.00;;;;5025810;28;20045;-73
2022/05/15 02:27:09;;;;;;;11.43;1.83;;;21.70;45.00;20.90;101730.00;;;;5034381;28;20037;-72
2022/05/15 02:29:55;;;;;;;5.22;1.52;;;21.70;45.10;20.90;101728.00;;;;5037685;28;20045;-72
2022/05/15 02:32:41;;;;;;;5.38;1.73;;;21.70;45.10;20.90;101734.00;;;;5029079;28;20033;-72
2022/05/15 02:35:27;;;;;;;4.45;1.55;;;21.70;45.10;20.80;101726.00;;;;5021265;28;20030;-72
2022/05/15 02:38:14;;;;;;;6.72;2.00;;;21.70;45.20;20.80;101730.00;;;;5019538;28;20041;-72
2022/05/15 02:41:00;;;;;;;7.25;2.25;;;21.60;45.20;20.80;101728.00;;;;5024433;28;20070;-72
2022/05/15 02:43:46;;;;;;;5.15;1.70;;;21.60;45.20;20.80;101728.00;;;;5039868;28;20479;-72
2022/05/15 02:46:32;;;;;;;7.43;1.90;;;21.60;45.20;20.80;101728.00;;;;5038811;28;20052;-73
2022/05/15 02:52:22;;;;;;;2.83;1.20;;;21.60;45.30;20.80;101721.00;;;;5040153;28;20090;-72
2022/05/15 02:55:08;;;;;;;3.80;1.80;;;21.60;45.30;20.80;101723.00;;;;5028866;28;20043;-72
2022/05/15 02:57:54;;;;;;;4.03;1.67;;;21.60;45.40;20.70;101722.00;;;;5017627;28;20038;-72
2022/05/15 03:00:40;;;;;;;2.47;1.40;;;21.50;45.40;20.70;101724.00;;;;5037345;28;20056;-72
2022/05/15 03:03:27;;;;;;;4.70;1.60;;;21.50;45.40;20.70;101726.00;;;;5039153;28;20040;-72
2022/05/15 03:06:13;;;;;;;5.82;1.58;;;21.50;45.40;20.70;101721.00;;;;5034356;28;20060;-72
2022/05/15 03:08:59;;;;;;;4.72;1.20;;;21.50;45.40;20.70;101713.00;;;;5034973;28;20045;-72
2022/05/15 03:11:45;;;;;;;3.05;1.50;;;21.50;45.40;20.70;101710.00;;;;5024131;28;20629;-72
2022/05/15 03:14:31;;;;;;;5.70;1.48;;;21.50;45.40;20.70;101712.00;;;;5031381;28;20045;-72
2022/05/15 03:17:17;;;;;;;5.78;1.60;;;21.50;45.30;20.70;101721.00;;;;5035330;28;20045;-72
2022/05/15 03:20:04;;;;;;;5.50;1.52;;;21.50;45.40;20.70;101716.00;;;;5040829;28;20115;-72
2022/05/15 03:22:51;;;;;;;5.00;1.45;;;21.50;45.40;20.70;101713.00;;;;5006192;28;20073;-72
2022/05/15 03:25:37;;;;;;;3.30;1.25;;;21.50;45.40;20.70;101717.00;;;;5037316;28;20153;-72
2022/05/15 03:28:23;;;;;;;3.88;1.70;;;21.50;45.30;20.70;101721.00;;;;5040822;28;20132;-72
2022/05/15 03:31:09;;;;;;;4.47;1.50;;;21.50;45.40;20.60;101724.00;;;;5035023;28;20053;-72
2022/05/15 03:33:55;;;;;;;2.95;1.20;;;21.50;45.40;20.70;101722.00;;;;5036174;28;20083;-72
2022/05/15 03:36:42;;;;;;;4.20;1.50;;;21.50;45.40;20.60;101718.00;;;;5020546;28;20045;-72
2022/05/15 03:39:28;;;;;;;5.90;1.73;;;21.40;45.30;20.60;101714.00;;;;5020527;28;20099;-72
2022/05/15 03:42:14;;;;;;;4.80;1.88;;;21.40;45.30;20.60;101717.00;;;;5037479;28;20418;-72
2022/05/15 03:45:00;;;;;;;3.78;1.30;;;21.40;45.30;20.60;101731.00;;;;5036346;28;20099;-72
2022/05/15 03:47:51;;;;;;;6.10;1.70;;;21.40;45.40;20.60;101723.00;;;;5019363;28;20418;-72
2022/05/15 03:50:37;;;;;;;3.30;1.30;;;21.40;45.40;20.60;101715.00;;;;5022373;28;20498;-72
2022/05/15 03:53:24;;;;;;;2.97;1.35;;;21.40;45.40;20.60;101716.00;;;;5003960;28;20048;-72
2022/05/15 03:56:10;;;;;;;4.60;1.40;;;21.40;45.40;20.60;101716.00;;;;5001661;28;20045;-72
2022/05/15 03:58:56;;;;;;;4.75;1.63;;;21.40;45.40;20.60;101720.00;;;;5026320;28;20497;-73
2022/05/15 04:01:42;;;;;;;5.32;1.58;;;21.40;45.40;20.60;101710.00;;;;5039839;28;20033;-72
2022/05/15 04:04:28;;;;;;;3.67;1.27;;;21.40;45.40;20.60;101710.00;;;;5043848;28;20437;-73
2022/05/15 04:07:14;;;;;;;5.45;1.42;;;21.40;45.40;20.60;101715.00;;;;5024126;28;20038;-72
2022/05/15 04:10:00;;;;;;;2.67;1.38;;;21.40;45.40;20.60;101710.00;;;;5042154;28;20100;-72
2022/05/15 04:12:47;;;;;;;4.50;1.67;;;21.30;45.40;20.60;101709.00;;;;5034666;28;20047;-72
2022/05/15 04:15:33;;;;;;;5.97;1.83;;;21.40;45.50;20.60;101713.00;;;;5028068;28;20044;-73
2022/05/15 04:18:19;;;;;;;6.57;1.63;;;21.30;45.50;20.50;101719.00;;;;5035884;28;20037;-73
2022/05/15 04:21:05;;;;;;;3.20;1.52;;;21.30;45.40;20.50;101725.00;;;;5033626;28;20049;-73
2022/05/15 04:23:51;;;;;;;3.08;1.52;;;21.30;45.40;20.50;101721.00;;;;5022007;28;20048;-73
2022/05/15 04:26:38;;;;;;;2.63;1.52;;;21.40;45.50;20.50;101717.00;;;;5007626;28;20694;-73
2022/05/15 04:29:24;;;;;;;8.20;1.60;;;21.30;45.50;20.50;101710.00;;;;5036766;28;20372;-73
2022/05/15 04:32:10;;;;;;;4.20;1.38;;;21.30;45.50;20.50;101719.00;;;;5041446;28;20037;-72
2022/05/15 04:34:56;;;;;;;4.35;1.50;;;21.30;45.40;20.50;101716.00;;;;5030147;28;20126;-72
2022/05/15 04:37:42;;;;;;;5.07;1.70;;;21.40;45.50;20.50;101710.00;;;;5018947;28;20033;-72
2022/05/15 04:40:28;;;;;;;3.13;1.50;;;21.30;45.40;20.50;101709.00;;;;5020781;28;20061;-72
2022/05/15 04:43:14;;;;;;;4.70;1.40;;;21.30;45.40;20.50;101706.00;;;;5035029;28;20099;-72
2022/05/15 04:46:03;;;;;;;5.10;1.70;;;21.40;45.40;20.50;101707.00;;;;5033614;28;20401;-72
2022/05/15 04:48:49;;;;;;;3.13;1.38;;;21.30;45.40;20.50;101706.00;;;;5036611;28;20111;-73
2022/05/15 04:51:35;;;;;;;3.63;1.38;;;21.30;45.50;20.50;101707.00;;;;5038519;28;20048;-73
2022/05/15 04:54:21;;;;;;;4.05;1.63;;;21.30;45.50;20.50;101715.00;;;;5017121;28;20056;-72
2022/05/15 04:57:07;;;;;;;7.15;2.00;;;21.30;45.40;20.50;101716.00;;;;5019936;28;20047;-72
2022/05/15 04:59:53;;;;;;;5.88;1.65;;;21.30;45.50;20.50;101713.00;;;;5041453;28;20051;-72
2022/05/15 05:02:39;;;;;;;3.83;1.60;;;21.30;45.50;20.50;101710.00;;;;5040605;28;20526;-73
2022/05/15 05:05:25;;;;;;;3.40;1.35;;;21.30;45.50;20.50;101702.00;;;;5046290;28;20056;-73
2022/05/15 05:08:13;;;;;;;7.38;1.75;;;21.30;45.50;20.50;101715.00;;;;5040089;28;20410;-73
2022/05/15 05:10:59;;;;;;;6.43;1.50;;;21.30;45.50;20.50;101707.00;;;;5019106;28;20053;-72
2022/05/15 05:13:45;;;;;;;6.22;1.80;;;21.40;45.50;20.50;101712.00;;;;5035524;28;20032;-73
2022/05/15 05:16:33;;;;;;;3.45;1.67;;;21.40;45.50;20.50;101714.00;;;;5027402;28;20084;-73
2022/05/15 05:19:19;;;;;;;7.68;1.90;;;21.30;45.50;20.50;101711.00;;;;5022941;28;20375;-72
2022/05/15 05:22:05;;;;;;;4.93;1.70;;;21.30;45.50;20.50;101711.00;;;;5012692;28;20111;-73
2022/05/15 05:24:51;;;;;;;6.45;2.08;;;21.30;45.60;20.50;101712.00;;;;5021501;28;20070;-73
2022/05/15 05:27:38;;;;;;;3.83;1.42;;;21.40;45.60;20.50;101716.00;;;;5035706;28;20497;-73
2022/05/15 05:30:24;;;;;;;5.30;1.83;;;21.30;45.50;20.50;101722.00;;;;5019141;28;20324;-73
2022/05/15 05:33:11;;;;;;;5.57;2.28;;;21.30;45.50;20.50;101713.00;;;;5045015;28;20586;-73
2022/05/15 05:35:57;;;;;;;5.05;1.88;;;21.40;45.60;20.50;101717.00;;;;5034728;28;20460;-73
2022/05/15 05:38:45;;;;;;;3.15;1.27;;;21.40;45.60;20.50;101715.00;;;;5034667;28;20043;-73
2022/05/15 05:41:31;;;;;;;3.78;1.33;;;21.40;45.60;20.60;101708.00;;;;5037119;28;20055;-73
2022/05/15 05:44:17;;;;;;;3.58;1.75;;;21.40;45.50;20.50;101703.00;;;;5039073;28;20117;-73
2022/05/15 05:47:03;;;;;;;3.40;1.38;;;21.40;45.50;20.60;101715.00;;;;5030247;28;20423;-72
2022/05/15 05:49:49;;;;;;;3.83;1.83;;;21.40;45.60;20.60;101716.00;;;;5039636;28;20041;-72
2022/05/15 05:52:38;;;;;;;4.50;1.38;;;21.40;45.50;20.60;101720.00;;;;5041291;28;20501;-73
2022/05/15 05:55:25;;;;;;;5.00;1.60;;;21.40;45.60;20.60;101720.00;;;;5021695;28;20063;-73
2022/05/15 05:58:11;;;;;;;5.82;1.50;;;21.40;45.60;20.60;101714.00;;;;5024940;28;20124;-73
2022/05/15 06:00:57;;;;;;;5.05;1.80;;;21.40;45.60;20.60;101720.00;;;;5028385;28;20513;-73
2022/05/15 06:06:48;;;;;;;4.55;1.40;;;21.40;45.40;20.60;101724.00;;;;5029823;28;20482;-73
2022/05/15 06:09:37;;;;;;;3.55;1.63;;;21.50;45.50;20.60;101729.00;;;;5039575;28;20037;-72
2022/05/15 06:12:24;;;;;;;4.28;1.50;;;21.50;45.50;20.60;101733.00;;;;4999667;28;20045;-73
2022/05/15 06:15:10;;;;;;;4.45;1.70;;;21.50;45.50;20.60;101739.00;;;;5031700;28;20079;-73
2022/05/15 06:18:00;;;;;;;4.35;1.20;;;21.60;45.50;20.60;101743.00;;;;5016988;28;20097;-73
2022/05/15 06:20:46;;;;;;;4.95;1.48;;;21.60;45.50;20.60;101740.00;;;;5037025;28;20053;-73
2022/05/15 06:23:32;;;;;;;4.15;1.50;;;21.50;45.50;20.70;101740.00;;;;5026551;28;20417;-73
2022/05/15 06:26:18;;;;;;;3.63;1.60;;;21.60;45.30;20.70;101741.00;;;;5022387;28;20049;-73
2022/05/15 06:29:04;;;;;;;6.07;2.13;;;21.50;45.30;20.70;101737.00;;;;5021397;28;20075;-73
2022/05/15 06:31:50;;;;;;;3.80;1.35;;;21.60;45.30;20.70;101744.00;;;;5013960;28;20404;-73
2022/05/15 06:34:36;;;;;;;2.45;1.10;;;21.60;45.30;20.70;101741.00;;;;5021526;28;20041;-73
2022/05/15 06:37:22;;;;;;;3.70;1.60;;;21.60;45.30;20.70;101750.00;;;;5034445;28;20256;-72
2022/05/15 06:40:10;;;;;;;2.28;1.48;;;21.60;45.30;20.70;101738.00;;;;5035688;28;20049;-73
2022/05/15 06:42:57;;;;;;;5.95;1.75;;;21.60;45.30;20.70;101741.00;;;;5022760;28;20094;-73
2022/05/15 06:45:43;;;;;;;2.28;1.25;;;21.60;45.30;20.70;101744.00;;;;5036726;28;20041;-73
2022/05/15 06:48:29;;;;;;;4.43;1.52;;;21.70;45.30;20.70;101742.00;;;;5024147;28;20079;-73
2022/05/15 06:51:16;;;;;;;4.70;1.45;;;21.70;45.40;20.70;101750.00;;;;5036796;28;20041;-73
2022/05/15 06:54:02;;;;;;;4.50;1.63;;;21.70;45.40;20.70;101746.00;;;;5021953;28;20038;-73
2022/05/15 06:59:53;;;;;;;4.35;1.48;;;21.70;45.40;20.70;101749.00;;;;5036495;28;20073;-73
2022/05/15 07:02:41;;;;;;;4.93;1.88;;;21.70;45.40;20.70;101740.00;;;;5019156;28;20124;-73
2022/05/15 07:05:31;;;;;;;3.45;1.50;;;21.70;45.40;20.70;101735.00;;;;5021401;28;20048;-72
2022/05/15 07:08:17;;;;;;;5.32;1.25;;;21.70;45.40;20.70;101729.00;;;;5038230;28;20052;-72
2022/05/15 07:11:04;;;;;;;4.53;1.42;;;21.70;45.40;20.70;101741.00;;;;5037774;28;20048;-73
2022/05/15 07:13:50;;;;;;;3.42;1.30;;;21.70;45.40;20.70;101735.00;;;;5008974;28;20148;-72
2022/05/15 07:16:36;;;;;;;3.17;1.38;;;21.80;45.40;20.70;101743.00;;;;5017037;28;20044;-73
2022/05/15 07:19:22;;;;;;;4.50;1.25;;;21.80;45.40;20.70;101742.00;;;;5008357;28;20116;-73
2022/05/15 07:22:10;;;;;;;7.72;2.10;;;21.80;45.40;20.70;101739.00;;;;5022983;28;20053;-73
2022/05/15 07:24:56;;;;;;;3.40;1.55;;;21.80;45.40;20.70;101739.00;;;;5039729;28;20053;-73
2022/05/15 07:27:42;;;;;;;7.10;1.50;;;21.80;45.40;20.70;101739.00;;;;5037111;28;20037;-72
2022/05/15 07:30:28;;;;;;;5.28;1.88;;;21.80;45.30;20.70;101735.00;;;;5037301;28;20037;-73
2022/05/15 07:33:14;;;;;;;5.15;1.50;;;21.80;45.40;20.70;101742.00;;;;5035142;28;20045;-73
2022/05/15 07:36:00;;;;;;;3.65;1.42;;;21.80;45.50;20.70;101734.00;;;;5008436;28;20064;-73
2022/05/15 07:38:46;;;;;;;5.40;1.70;;;21.80;45.40;20.70;101733.00;;;;5030081;28;20112;-72
2022/05/15 07:41:33;;;;;;;7.43;1.63;;;21.80;45.40;20.80;101731.00;;;;5028203;28;20053;-73
2022/05/15 07:44:19;;;;;;;5.72;1.67;;;21.80;45.40;20.70;101721.00;;;;5023742;28;20052;-73
2022/05/15 07:47:05;;;;;;;5.35;1.80;;;21.80;45.40;20.70;101724.00;;;;5033955;28;20474;-73
2022/05/15 07:49:52;;;;;;;6.05;1.60;;;21.80;45.40;20.80;101727.00;;;;5044560;28;20333;-73
2022/05/15 07:52:38;;;;;;;5.80;1.80;;;21.80;45.20;20.80;101727.00;;;;5040532;28;20475;-75
2022/05/15 07:55:24;;;;;;;7.25;2.22;;;21.90;45.30;20.80;101715.00;;;;5039774;28;20482;-75
2022/05/15 07:58:10;;;;;;;7.57;2.42;;;21.80;45.40;20.80;101716.00;;;;5041320;28;20478;-75
2022/05/15 08:00:56;;;;;;;11.43;2.33;;;21.70;45.40;20.80;101720.00;;;;5048530;28;20131;-75
2022/05/15 08:03:45;;;;;;;5.07;1.65;;;21.80;45.50;20.80;101720.00;;;;5004200;28;20044;-74
2022/05/15 08:09:36;;;;;;;7.35;2.40;;;21.90;45.60;20.80;101717.00;;;;5032427;28;20131;-75
2022/05/15 08:12:22;;;;;;;8.90;2.25;;;21.80;45.40;20.80;101713.00;;;;5046962;28;20538;-74
2022/05/15 08:15:09;;;;;;;6.70;1.75;;;21.80;45.50;20.80;101710.00;;;;5039301;28;20049;-75
2022/05/15 08:17:55;;;;;;;6.18;2.10;;;21.90;45.50;20.80;101704.00;;;;5031481;28;20045;-74
2022/05/15 08:23:58;;;;;;;7.15;2.08;;;21.90;45.50;20.80;101719.00;;;;5033375;28;20524;-75
2022/05/15 08:26:45;;;;;;;15.55;2.78;;;21.90;45.60;20.80;101713.00;;;;5025498;28;20068;-74
2022/05/15 08:29:31;;;;;;;12.77;2.20;;;21.90;45.60;20.80;101711.00;;;;5043485;28;21159;-74
2022/05/15 08:32:18;;;;;;;6.45;2.15;;;21.90;45.70;20.80;101717.00;;;;5029497;28;20045;-74
2022/05/15 08:35:04;;;;;;;7.87;2.20;;;21.90;45.80;20.90;101714.00;;;;5036320;28;20116;-74
2022/05/15 08:37:50;;;;;;;7.32;1.77;;;21.90;45.80;20.90;101713.00;;;;5026318;28;20279;-74
2022/05/15 08:40:47;;;;;;;8.85;2.30;;;22.00;46.00;20.90;101710.00;;;;5046138;28;20045;-75
2022/05/15 08:43:45;;;;;;;5.93;1.90;;;22.00;45.90;20.90;101707.00;;;;5006641;28;20056;-74
2022/05/15 08:46:59;;;;;;;7.25;2.15;;;22.00;45.90;20.90;101709.00;;;;5038287;28;20053;-74
2022/05/15 08:49:57;;;;;;;6.43;2.25;;;22.00;45.70;20.90;101707.00;;;;5027531;28;20045;-75
2022/05/15 08:52:51;;;;;;;6.20;1.77;;;22.00;45.70;20.90;101709.00;;;;5015760;28;20065;-74
2022/05/15 08:55:51;;;;;;;8.07;2.40;;;22.00;45.80;20.90;101704.00;;;;5041389;28;20036;-74
2022/05/15 08:58:37;;;;;;;6.65;2.20;;;22.00;45.70;20.90;101710.00;;;;5023832;28;20434;-75
2022/05/15 09:01:29;;;;;;;7.20;2.70;;;22.00;45.70;20.90;101701.00;;;;5036567;28;20069;-75
2022/05/15 09:04:15;;;;;;;5.88;1.98;;;22.00;45.80;20.90;101710.00;;;;5008781;28;20045;-75
2022/05/15 09:07:04;;;;;;;5.22;1.67;;;21.90;45.80;20.90;101708.00;;;;5033050;28;20087;-74
2022/05/15 09:10:01;;;;;;;7.00;2.00;;;22.10;45.90;20.90;101712.00;;;;5042166;28;20033;-74
2022/05/15 09:12:59;;;;;;;6.78;1.80;;;22.00;45.80;20.90;101714.00;;;;5037046;28;20288;-74
2022/05/15 09:16:22;;;;;;;8.43;2.10;;;22.10;45.80;20.90;101713.00;;;;5011127;28;20033;-75
2022/05/15 09:19:08;;;;;;;5.68;1.60;;;22.10;45.70;20.90;101710.00;;;;5031526;28;20119;-74
2022/05/15 09:21:55;;;;;;;8.23;2.60;;;22.10;45.80;20.90;101710.00;;;;5018932;28;20631;-75
2022/05/15 09:24:48;;;;;;;11.85;2.63;;;22.10;45.80;20.90;101704.00;;;;5031331;28;20029;-74
2022/05/15 09:27:34;;;;;;;12.45;2.47;;;22.10;45.70;20.90;101709.00;;;;5020358;28;20061;-75
2022/05/15 09:30:20;;;;;;;7.80;2.80;;;22.10;45.40;20.90;101701.00;;;;5016963;28;20037;-74
2022/05/15 09:33:06;;;;;;;7.68;2.40;;;22.10;45.40;20.90;101706.00;;;;5027439;28;20048;-75
2022/05/15 09:36:20;;;;;;;8.32;1.80;;;22.10;45.40;21.00;101702.00;;;;5015812;28;20037;-72
2022/05/15 09:39:38;;;;;;;5.93;1.70;;;22.10;45.50;21.00;101700.00;;;;5023979;28;20057;-74
2022/05/15 09:45:30;;;;;;;9.23;2.00;;;22.10;45.50;20.90;101690.00;;;;5009564;28;21100;-74
2022/05/15 09:48:16;;;;;;;9.30;2.35;;;22.10;45.40;20.90;101689.00;;;;5036295;28;20041;-75
2022/05/15 09:51:04;;;;;;;6.80;2.00;;;22.10;45.40;20.90;101682.00;;;;4994996;28;20045;-75
2022/05/15 09:53:51;;;;;;;8.63;2.17;;;22.10;45.40;20.90;101680.00;;;;5007387;28;20048;-76
2022/05/15 09:56:37;;;;;;;6.27;2.00;;;22.10;45.40;20.90;101684.00;;;;5008292;28;20049;-75
2022/05/15 09:59:26;;;;;;;7.25;2.13;;;22.10;45.40;21.00;101681.00;;;;5024482;28;20048;-75
2022/05/15 10:02:24;;;;;;;8.40;1.73;;;22.10;45.40;21.00;101672.00;;;;5021915;28;20733;-80
2022/05/15 10:05:26;;;;;;;8.15;2.88;;;22.10;45.40;21.00;101676.00;;;;5038928;28;20053;-75
2022/05/15 10:08:24;;;;;;;7.00;2.10;;;22.10;45.40;20.90;101676.00;;;;5026307;28;20522;-77
2022/05/15 10:11:19;;;;;;;6.30;1.88;;;22.10;45.30;21.00;101676.00;;;;5020120;28;20080;-75
2022/05/15 10:14:06;;;;;;;4.20;1.77;;;22.10;45.30;21.00;101675.00;;;;5020216;28;20406;-75
2022/05/15 10:16:54;;;;;;;9.90;2.35;;;22.00;45.20;21.00;101672.00;;;;5016201;28;20080;-75
2022/05/15 10:19:49;;;;;;;8.98;2.53;;;22.10;45.20;21.00;101671.00;;;;5009021;28;20044;-75
2022/05/15 10:23:05;;;;;;;7.43;2.28;;;22.10;45.20;21.00;101666.00;;;;5024143;28;20098;-75
2022/05/15 10:25:59;;;;;;;7.95;1.88;;;22.10;45.20;20.90;101660.00;;;;5026632;28;20087;-75
2022/05/15 10:29:11;;;;;;;7.50;2.13;;;22.10;45.10;21.00;101659.00;;;;5011378;28;20037;-75
2022/05/15 10:32:26;;;;;;;7.47;1.90;;;22.00;45.10;21.00;101653.00;;;;5027656;28;20045;-75
2022/05/15 10:35:15;;;;;;;6.03;2.17;;;22.10;45.20;21.00;101654.00;;;;5012524;28;20071;-75
2022/05/15 10:38:41;;;;;;;5.05;1.95;;;22.10;45.20;21.00;101655.00;;;;5008515;28;20042;-75
2022/05/15 10:42:01;;;;;;;9.77;2.05;;;22.10;45.20;21.00;101645.00;;;;5007273;28;20131;-75
2022/05/15 10:45:25;;;;;;;7.03;1.80;;;22.10;45.00;21.00;101636.00;;;;5026151;28;20041;-75
2022/05/15 10:48:30;;;;;;;6.60;2.08;;;22.10;45.10;21.00;101632.00;;;;5027712;28;20072;-75
2022/05/15 10:51:23;;;;;;;6.43;1.75;;;22.10;45.00;21.00;101629.00;;;;5043901;28;20064;-72
2022/05/15 10:58:13;;;;;;;4.30;1.80;;;22.10;45.00;21.00;101623.00;;;;4996175;28;20041;-73
2022/05/15 11:01:19;;;;;;;6.68;2.08;;;22.10;45.00;21.00;101625.00;;;;5031470;28;20119;-73
2022/05/15 11:05:00;;;;;;;5.07;1.88;;;22.10;45.00;21.00;101618.00;;;;5027819;28;20508;-73
2022/05/15 11:07:51;;;;;;;7.47;2.10;;;22.10;45.00;21.00;101622.00;;;;5007666;28;20053;-73
2022/05/15 11:11:06;;;;;;;6.00;2.25;;;22.10;45.00;21.00;101620.00;;;;5009288;28;20056;-73
2022/05/15 11:14:06;;;;;;;5.55;2.40;;;22.10;45.00;21.00;101606.00;;;;5021810;28;20047;-73
2022/05/15 11:17:17;;;;;;;9.00;2.47;;;22.10;45.00;21.00;101608.00;;;;5004848;28;20045;-73
2022/05/15 11:20:25;;;;;;;7.50;2.13;;;22.10;45.00;21.00;101617.00;;;;5016686;28;20067;-74
2022/05/15 11:23:33;;;;;;;8.70;2.28;;;22.10;45.00;21.00;101616.00;;;;5034607;28;20036;-73
2022/05/15 11:26:31;;;;;;;7.07;2.08;;;22.10;45.00;21.00;101612.00;;;;5013836;28;20081;-74
2022/05/15 11:29:18;;;;;;;7.70;2.22;;;22.10;45.00;21.00;101598.00;;;;5028735;28;20041;-73
2022/05/15 11:32:05;;;;;;;5.93;1.80;;;22.10;45.00;21.00;101586.00;;;;5027858;28;20115;-73
2022/05/15 11:35:11;;;;;;;7.68;2.00;;;22.10;45.00;21.00;101592.00;;;;5006720;28;20577;-73
2022/05/15 11:38:08;;;;;;;8.65;2.05;;;22.10;44.90;21.00;101587.00;;;;5016992;28;20045;-73
2022/05/15 11:40:54;;;;;;;6.60;2.22;;;22.20;44.90;21.00;101589.00;;;;5027316;28;20041;-73
2022/05/15 11:43:57;;;;;;;7.95;2.05;;;22.10;45.50;21.00;101580.00;;;;5026613;28;20391;-73
2022/05/15 11:46:49;;;;;;;8.40;2.50;;;22.10;44.70;21.00;101574.00;;;;5026844;28;20820;-73
2022/05/15 11:49:59;;;;;;;6.50;2.88;;;22.10;44.70;21.00;101571.00;;;;5038779;28;20087;-73
2022/05/15 11:52:54;;;;;;;4.22;1.60;;;22.20;44.70;21.00;101564.00;;;;5038524;28;20045;-73
2022/05/15 11:55:46;;;;;;;5.57;2.20;;;22.20;44.70;21.00;101561.00;;;;5037708;28;20045;-73
2022/05/15 11:58:37;;;;;;;5.80;2.05;;;22.20;44.70;21.00;101564.00;;;;5020421;28;20482;-73
2022/05/15 12:01:32;;;;;;;6.32;2.03;;;22.20;44.80;21.00;101563.00;;;;5022549;28;20498;-73
2022/05/15 12:04:18;;;;;;;8.30;2.22;;;22.20;44.70;21.00;101555.00;;;;5034282;28;20069;-72
2022/05/15 12:07:03;;;;;;;6.95;2.85;;;22.20;44.60;21.00;101561.00;;;;5035745;28;20064;-73
2022/05/15 12:09:51;;;;;;;5.03;1.98;;;22.20;44.60;21.10;101558.00;;;;5035527;28;20052;-73
2022/05/15 12:13:03;;;;;;;;;;;22.20;44.60;21.00;101561.00;;;;5025400;28;20148;-73
2022/05/15 12:15:50;;;;;;;9.40;2.05;;;22.20;44.70;21.00;101560.00;;;;5025612;28;19920;-72
2022/05/15 12:18:37;;;;;;;9.50;2.08;;;22.30;44.50;21.00;101555.00;;;;4997540;28;20054;-73
2022/05/15 12:21:46;;;;;;;8.05;2.50;;;22.30;44.50;21.10;101549.00;;;;5025591;28;20136;-73
2022/05/15 12:24:37;;;;;;;5.93;1.90;;;22.30;44.60;21.10;101542.00;;;;5009981;28;20079;-72
2022/05/15 12:27:25;;;;;;;4.70;1.63;;;22.30;44.60;21.10;101552.00;;;;5021554;28;20128;-73
2022/05/15 12:30:18;;;;;;;6.78;2.08;;;22.30;44.50;21.10;101545.00;;;;5010466;28;20423;-73
2022/05/15 12:33:05;;;;;;;8.15;1.88;;;22.30;44.50;21.10;101543.00;;;;5025012;28;20051;-74
2022/05/15 12:35:51;;;;;;;6.75;2.33;;;22.30;44.50;21.10;101534.00;;;;5019686;28;20040;-73
2022/05/15 12:38:37;;;;;;;4.07;1.50;;;22.30;44.60;21.10;101542.00;;;;5005128;28;20041;-72
2022/05/15 12:41:37;;;;;;;6.30;1.73;;;22.30;44.60;21.10;101543.00;;;;5036689;28;20483;-73
2022/05/15 12:44:37;;;;;;;4.53;1.65;;;22.30;44.60;21.10;101547.00;;;;5012076;28;20034;-73
2022/05/15 12:47:31;;;;;;;4.78;1.60;;;22.30;44.40;21.10;101550.00;;;;5010660;28;20055;-73
2022/05/15 12:50:21;;;;;;;6.25;2.20;;;22.30;44.40;21.10;101549.00;;;;5027195;28;20146;-73